Strona główna
METAR-TAF:

METAR-TAF

Lotnisko :

Port lotniczy Mendoza

Mendoza, Argentyna

Szerokość geograficzna: 32-50S, Długość geograficzna: 068-47W, wysokość: 705 m

Aktualna obserwacja pogody

Raport powstał 53 minut temu, godzina 11:00 UTC
Wiatr 2 kt od południe
Temperatura 17°C
Wilgotność 68%
Ciśnienie 1011 hPa
Widzialność 10 km lub więcej
Brak chmur poniżej 1500 m i brak chmur cumulonimbus

METAR: SAME 191100Z 18002KT CAVOK 17/11 Q1011

czas: 08:53 (11:53 UTC)

Prognoza

Raport powstał 53 minut temu, godzina 11:00 UTC
Prognoza ważna od 19 godzina 12 UTC do 20 godzina 12 UTC
Wiatr 3 kt z kierunków zmiennych
Widzialność 10 km lub więcej
Brak chmur poniżej 1500 m i brak chmur cumulonimbus
Stopniowe zmiany
od 20 godzina 00 UTC do 20 godzina 02 UTC
Wiatr 10 kt od południowo-południowy wschód

TAF: SAME 191100Z 1912/2012 VRB03KT CAVOK TX33/1920Z TN18/2010Z BECMG 2000/2002 16010KT

Obserwacja i prognoza pogody dla ponad 4000 lotnisk (raport METAR i TAF).

Dostępne stacje oznaczono żółtymi i czerwonymi punktami na mapie.

Najedź kursorem aby zobaczyć nazwę stacji.

Kliknij aby zobaczyć obserwacje i prognozy pogody.

Aby zmienić mapę: kliknij na zielony przycisk z czarnym krzyżykiem, aby powiększyć; na zielony przycisk z myślnikiem, aby pomniejszyć; na zielone strzałki, aby przejść do map sąsiednich.


METAR-TAF: